Time;durP1;ratioP1;P1;durP2;ratioP2;P2;SDS_P1;SDS_P2;PMS_P1;PMS_P2;Temp;Humidity;BMP_temperature;BMP_pressure;BME280_temperature;BME280_humidity;BME280_pressure;Samples;Min_cycle;Max_cycle;Signal;HPM_P1;HPM_P2
2022/04/14 00:00:27;;;;;;;48.90;32.63;;;11.70;91.00;;;;;;4863519;29;20181;-85
2022/04/14 00:02:53;;;;;;;48.10;31.37;;;11.70;90.90;;;;;;4846824;29;20187;-85
2022/04/14 00:05:18;;;;;;;52.20;32.83;;;11.70;90.80;;;;;;4846854;29;20541;-86
2022/04/14 00:07:44;;;;;;;48.73;34.07;;;11.70;90.70;;;;;;4846836;29;20207;-86
2022/04/14 00:10:10;;;;;;;45.67;30.47;;;11.80;90.60;;;;;;4863379;29;20650;-86
2022/04/14 00:12:36;;;;;;;47.63;32.57;;;11.80;90.50;;;;;;4846672;29;20222;-86
2022/04/14 00:15:04;;;;;;;53.33;33.77;;;11.80;90.40;;;;;;4863294;29;20175;-86
2022/04/14 00:17:33;;;;;;;54.30;34.73;;;11.70;90.20;;;;;;4863425;29;20186;-86
2022/04/14 00:20:00;;;;;;;52.47;35.00;;;11.60;90.40;;;;;;4846784;29;20255;-86
2022/04/14 00:22:25;;;;;;;50.53;33.13;;;11.70;90.50;;;;;;4846974;29;20187;-86
2022/04/14 00:24:51;;;;;;;55.43;33.47;;;11.60;90.50;;;;;;4846813;29;20234;-86
2022/04/14 00:27:18;;;;;;;58.53;35.40;;;11.60;90.40;;;;;;4846684;29;20258;-86
2022/04/14 00:29:44;;;;;;;58.90;35.87;;;11.50;90.60;;;;;;4846626;29;20261;-86
2022/04/14 00:32:09;;;;;;;62.37;35.87;;;11.40;90.80;;;;;;4863311;29;20239;-86
2022/04/14 00:34:35;;;;;;;61.13;37.77;;;11.30;91.00;;;;;;4863083;29;20183;-86
2022/04/14 00:37:04;;;;;;;62.67;35.57;;;11.20;91.30;;;;;;4863112;29;20661;-86
2022/04/14 00:39:29;;;;;;;67.60;37.50;;;11.20;91.60;;;;;;4846346;29;20214;-86
2022/04/14 00:41:55;;;;;;;64.70;37.60;;;11.20;91.80;;;;;;4846401;29;20191;-86
2022/04/14 00:44:20;;;;;;;64.80;37.03;;;11.20;91.80;;;;;;4846419;29;20277;-87
2022/04/14 00:46:46;;;;;;;70.33;37.43;;;11.20;91.90;;;;;;4863232;29;20187;-87
2022/04/14 00:49:12;;;;;;;62.47;37.73;;;11.20;91.90;;;;;;4862538;29;20267;-87
2022/04/14 00:51:38;;;;;;;64.53;38.37;;;11.20;91.90;;;;;;4846131;29;20193;-86
2022/04/14 00:54:04;;;;;;;70.93;38.83;;;11.10;92.00;;;;;;4862735;29;20210;-86
2022/04/14 00:56:29;;;;;;;76.77;38.87;;;11.20;92.00;;;;;;4862656;29;20213;-87
2022/04/14 00:58:55;;;;;;;67.73;37.30;;;11.20;92.10;;;;;;4862607;29;20226;-86
2022/04/14 01:01:20;;;;;;;69.70;38.67;;;11.20;92.10;;;;;;4862674;29;20190;-86
2022/04/14 01:03:47;;;;;;;68.47;37.90;;;11.20;92.10;;;;;;4846066;29;20277;-87
2022/04/14 01:06:19;;;;;;;66.40;36.17;;;11.20;92.00;;;;;;4845932;29;20657;-86
2022/04/14 01:09:16;;;;;;;68.47;36.97;;;11.20;92.00;;;;;;4862649;29;20206;-86
2022/04/14 01:11:31;;;;;;;74.43;41.10;;;11.10;92.00;;;;;;4862220;29;20265;-86
2022/04/14 01:13:57;;;;;;;70.20;40.47;;;11.20;92.00;;;;;;4862770;29;20301;-86
2022/04/14 01:16:22;;;;;;;66.47;38.47;;;11.20;92.00;;;;;;4845790;29;20183;-88
2022/04/14 01:18:48;;;;;;;63.67;35.00;;;11.10;91.90;;;;;;4862341;29;20221;-86
2022/04/14 01:21:13;;;;;;;63.53;35.47;;;11.10;91.90;;;;;;4845911;29;20179;-86
2022/04/14 01:23:42;;;;;;;65.27;36.37;;;11.00;91.80;;;;;;4861888;29;20239;-85
2022/04/14 01:26:08;;;;;;;64.27;37.07;;;11.00;91.90;;;;;;4845665;29;20674;-85
2022/04/14 01:28:34;;;;;;;73.40;37.37;;;10.90;91.90;;;;;;4845845;29;20213;-86
2022/04/14 01:30:59;;;;;;;53.27;34.87;;;10.90;92.10;;;;;;4862245;29;20187;-87
2022/04/14 01:33:25;;;;;;;64.30;36.53;;;10.90;92.20;;;;;;4845588;29;20247;-87
2022/04/14 01:35:51;;;;;;;69.00;36.83;;;10.90;92.20;;;;;;4845598;29;20211;-87
2022/04/14 01:38:16;;;;;;;65.57;37.47;;;10.80;92.30;;;;;;4845478;29;20208;-86
2022/04/14 01:40:42;;;;;;;62.47;34.43;;;10.80;92.40;;;;;;4862133;29;20175;-86
2022/04/14 01:43:07;;;;;;;58.27;34.67;;;10.80;92.40;;;;;;4845431;29;20666;-87
2022/04/14 01:45:33;;;;;;;64.17;34.27;;;10.90;92.40;;;;;;4845669;29;20213;-86
2022/04/14 01:47:58;;;;;;;57.47;35.07;;;10.90;92.40;;;;;;4845209;29;20271;-86
2022/04/14 01:50:24;;;;;;;62.93;36.10;;;10.90;92.40;;;;;;4845336;29;20186;-86
2022/04/14 01:52:50;;;;;;;62.63;36.03;;;10.90;92.40;;;;;;4861812;29;20255;-87
2022/04/14 01:55:16;;;;;;;59.67;36.40;;;10.90;92.50;;;;;;4862007;29;20208;-87
2022/04/14 01:57:41;;;;;;;67.30;37.20;;;10.90;92.50;;;;;;4861694;29;20238;-87
2022/04/14 02:00:09;;;;;;;62.73;35.63;;;10.90;92.50;;;;;;4861698;29;20178;-87
2022/04/14 02:02:35;;;;;;;56.90;36.90;;;10.80;92.50;;;;;;4861769;29;20190;-87
2022/04/14 02:05:01;;;;;;;60.70;36.40;;;10.80;92.50;;;;;;4845250;29;20297;-87
2022/04/14 02:07:27;;;;;;;62.50;35.17;;;10.80;92.50;;;;;;4845065;29;20553;-87
2022/04/14 02:09:53;;;;;;;57.77;35.57;;;10.80;92.40;;;;;;4845203;29;20187;-87
2022/04/14 02:12:18;;;;;;;56.67;33.30;;;10.90;92.40;;;;;;4844831;29;20203;-87
2022/04/14 02:14:44;;;;;;;55.43;33.90;;;10.80;92.40;;;;;;4862059;29;20185;-86
2022/04/14 02:17:10;;;;;;;60.43;34.40;;;10.90;92.40;;;;;;4861451;29;20661;-87
2022/04/14 02:19:35;;;;;;;53.07;32.67;;;10.90;92.40;;;;;;4844864;29;20242;-87
2022/04/14 02:22:01;;;;;;;58.77;33.23;;;10.80;92.30;;;;;;4844987;29;20178;-87
2022/04/14 02:24:27;;;;;;;52.27;32.47;;;10.90;92.30;;;;;;4861536;29;20213;-87
2022/04/14 02:26:53;;;;;;;50.80;32.33;;;10.80;92.30;;;;;;4861360;29;20182;-86
2022/04/14 02:29:19;;;;;;;56.60;32.50;;;10.90;92.40;;;;;;4844772;29;20689;-86
2022/04/14 02:31:45;;;;;;;53.53;32.47;;;10.80;92.40;;;;;;4844858;29;20183;-87
2022/04/14 02:34:11;;;;;;;54.87;31.67;;;10.80;92.40;;;;;;4861413;29;20550;-87
2022/04/14 02:36:37;;;;;;;50.33;31.97;;;10.80;92.50;;;;;;4844785;29;20178;-86
2022/04/14 02:39:03;;;;;;;57.93;32.07;;;10.80;92.50;;;;;;4861229;29;20245;-87
2022/04/14 02:41:29;;;;;;;50.23;31.70;;;10.70;92.50;;;;;;4845090;29;20210;-86
2022/04/14 02:43:54;;;;;;;52.93;31.97;;;10.70;92.60;;;;;;4844679;29;20229;-86
2022/04/14 02:46:21;;;;;;;53.50;30.23;;;10.70;92.80;;;;;;4844623;29;20182;-87
2022/04/14 02:48:46;;;;;;;53.17;30.97;;;10.70;92.80;;;;;;4860846;29;20594;-86
2022/04/14 02:51:12;;;;;;;56.60;31.53;;;10.70;92.80;;;;;;4844627;29;20193;-87
2022/04/14 02:53:37;;;;;;;49.70;30.47;;;10.60;92.90;;;;;;4844932;29;20214;-87
2022/04/14 02:56:05;;;;;;;47.20;30.53;;;10.60;92.90;;;;;;4844689;29;20171;-86
2022/04/14 02:58:31;;;;;;;45.30;30.43;;;10.60;93.00;;;;;;4844617;29;20202;-87
2022/04/14 03:00:57;;;;;;;47.93;30.27;;;10.60;93.00;;;;;;4844541;29;20183;-86
2022/04/14 03:03:24;;;;;;;44.57;28.80;;;10.60;93.00;;;;;;4844594;29;20182;-86
2022/04/14 03:05:50;;;;;;;49.43;28.37;;;10.50;93.00;;;;;;4844387;29;20190;-87
2022/04/14 03:08:15;;;;;;;50.17;31.17;;;10.50;93.00;;;;;;4861412;29;20202;-86
2022/04/14 03:10:41;;;;;;;51.07;29.63;;;10.50;93.00;;;;;;4861432;29;20235;-87
2022/04/14 03:13:06;;;;;;;52.17;30.90;;;10.50;93.00;;;;;;4861034;29;20203;-87
2022/04/14 03:15:32;;;;;;;46.23;30.33;;;10.50;93.00;;;;;;4844323;29;20211;-87
2022/04/14 03:17:57;;;;;;;48.10;29.87;;;10.50;93.00;;;;;;4860962;29;20611;-86
2022/04/14 03:20:23;;;;;;;51.73;31.03;;;10.50;93.10;;;;;;4844476;29;20195;-87
2022/04/14 03:22:48;;;;;;;51.67;31.93;;;10.60;93.00;;;;;;4860889;29;20178;-86
2022/04/14 03:25:14;;;;;;;51.13;31.10;;;10.60;93.10;;;;;;4844347;29;20248;-87
2022/04/14 03:27:40;;;;;;;50.43;31.77;;;10.60;93.10;;;;;;4860819;29;20233;-87
2022/04/14 03:30:08;;;;;;;52.40;30.33;;;10.60;93.20;;;;;;4860797;29;20646;-86
2022/04/14 03:32:44;;;;;;;45.63;29.90;;;10.50;93.20;;;;;;4844173;29;20231;-87
2022/04/14 03:35:13;;;;;;;43.47;27.70;;;10.50;93.20;;;;;;4861196;29;20159;-86
2022/04/14 03:37:40;;;;;;;44.07;28.93;;;10.50;93.10;;;;;;4844279;29;20206;-87
2022/04/14 03:40:06;;;;;;;44.00;28.67;;;10.50;93.20;;;;;;4860877;29;20737;-87
2022/04/14 03:42:31;;;;;;;43.33;28.57;;;10.50;93.10;;;;;;4844287;29;20666;-87
2022/04/14 03:45:00;;;;;;;50.23;30.63;;;10.50;93.10;;;;;;4860899;29;20179;-87
2022/04/14 03:47:26;;;;;;;49.23;31.33;;;10.50;93.20;;;;;;4847044;29;20194;-87
2022/04/14 03:49:51;;;;;;;45.57;29.13;;;10.50;93.30;;;;;;4847660;29;20195;-87
2022/04/14 03:52:17;;;;;;;49.67;30.87;;;10.50;93.30;;;;;;4864455;29;20178;-87
2022/04/14 03:54:43;;;;;;;51.33;31.03;;;10.50;93.30;;;;;;4864699;29;20171;-87
2022/04/14 03:57:09;;;;;;;49.77;29.17;;;10.40;93.30;;;;;;4864147;29;20607;-86
2022/04/14 03:59:35;;;;;;;45.37;31.60;;;10.50;93.40;;;;;;4863799;29;20252;-86
2022/04/14 04:02:00;;;;;;;52.40;30.87;;;10.50;93.40;;;;;;4863964;29;20183;-86
2022/04/14 04:04:26;;;;;;;56.40;32.50;;;10.50;93.40;;;;;;4864114;29;20525;-87
2022/04/14 04:06:51;;;;;;;52.97;33.20;;;10.40;93.40;;;;;;4864035;29;20179;-87
2022/04/14 04:09:17;;;;;;;47.80;32.10;;;10.40;93.50;;;;;;4847163;29;20194;-87
2022/04/14 04:11:42;;;;;;;46.77;29.93;;;10.40;93.50;;;;;;4847097;29;20266;-86
2022/04/14 04:14:08;;;;;;;54.63;32.53;;;10.40;93.50;;;;;;4847336;29;20297;-86
2022/04/14 04:16:33;;;;;;;49.17;31.03;;;10.40;93.60;;;;;;4846993;29;20179;-87
2022/04/14 04:18:59;;;;;;;44.73;29.20;;;10.40;93.50;;;;;;4863674;29;20546;-87
2022/04/14 04:21:26;;;;;;;44.20;29.13;;;10.30;93.50;;;;;;4863546;29;20183;-86
2022/04/14 04:23:52;;;;;;;45.93;30.17;;;10.30;93.50;;;;;;4863674;29;20196;-87
2022/04/14 04:26:18;;;;;;;49.80;29.87;;;10.30;93.50;;;;;;4863468;29;20183;-87
2022/04/14 04:28:43;;;;;;;52.00;30.83;;;10.30;93.50;;;;;;4846668;29;20266;-87
2022/04/14 04:31:09;;;;;;;49.40;31.33;;;10.20;93.60;;;;;;4846763;29;20242;-86
2022/04/14 04:33:34;;;;;;;57.10;31.47;;;10.20;93.60;;;;;;4846390;29;20300;-87
2022/04/14 04:36:00;;;;;;;52.57;31.13;;;10.20;93.80;;;;;;4863188;29;20654;-86
2022/04/14 04:38:25;;;;;;;60.53;31.83;;;10.20;93.90;;;;;;4846676;29;20206;-86
2022/04/14 04:40:51;;;;;;;64.20;34.00;;;10.20;94.00;;;;;;4846606;29;20239;-87
2022/04/14 04:43:16;;;;;;;54.70;31.47;;;10.20;94.00;;;;;;4863083;29;20194;-86
2022/04/14 04:45:43;;;;;;;56.27;32.83;;;10.30;94.20;;;;;;4863125;29;20199;-87
2022/04/14 04:48:08;;;;;;;61.97;34.20;;;10.30;94.20;;;;;;4846250;29;20227;-86
2022/04/14 04:50:34;;;;;;;58.13;33.93;;;10.30;94.30;;;;;;4863238;29;20557;-86
2022/04/14 04:52:59;;;;;;;56.30;32.83;;;10.20;94.30;;;;;;4846249;29;20244;-86
2022/04/14 04:55:25;;;;;;;58.67;33.33;;;10.30;94.40;;;;;;4863078;29;20185;-86
2022/04/14 04:57:51;;;;;;;51.97;32.77;;;10.30;94.40;;;;;;4861749;29;20199;-86
2022/04/14 05:00:16;;;;;;;55.73;32.33;;;10.30;94.40;;;;;;4846246;29;20698;-86
2022/04/14 05:02:42;;;;;;;55.93;33.37;;;10.30;94.50;;;;;;4846376;29;20191;-86
2022/04/14 05:05:08;;;;;;;56.20;33.03;;;10.30;94.50;;;;;;4846082;29;20569;-86
2022/04/14 05:07:34;;;;;;;64.23;34.67;;;10.30;94.50;;;;;;4862770;29;20231;-86
2022/04/14 05:09:59;;;;;;;60.93;33.20;;;10.30;94.50;;;;;;4862467;29;20258;-86
2022/04/14 05:12:25;;;;;;;63.53;35.37;;;10.30;94.60;;;;;;4845990;29;20678;-86
2022/04/14 05:14:50;;;;;;;56.97;36.13;;;10.30;94.60;;;;;;4846209;29;20182;-87
2022/04/14 05:17:16;;;;;;;65.00;34.27;;;10.30;94.50;;;;;;4862732;29;20278;-87
2022/04/14 05:19:41;;;;;;;66.40;36.50;;;10.30;94.50;;;;;;4845935;29;20202;-86
2022/04/14 05:22:07;;;;;;;67.60;35.90;;;10.30;94.60;;;;;;4862406;29;20175;-87
2022/04/14 05:24:33;;;;;;;58.43;35.43;;;10.30;94.50;;;;;;4862808;29;20189;-86
2022/04/14 05:26:59;;;;;;;60.60;34.50;;;10.40;94.50;;;;;;4862375;29;20228;-86
2022/04/14 05:29:24;;;;;;;63.80;35.03;;;10.30;94.50;;;;;;4845774;29;20199;-87
2022/04/14 05:31:50;;;;;;;69.17;35.53;;;10.40;94.60;;;;;;4845812;29;20202;-87
2022/04/14 05:34:15;;;;;;;58.73;34.67;;;10.40;94.60;;;;;;4862171;29;20584;-87
2022/04/14 05:36:41;;;;;;;62.43;33.93;;;10.40;94.50;;;;;;4845593;29;20212;-87
2022/04/14 05:39:06;;;;;;;65.10;35.97;;;10.40;94.50;;;;;;4846140;29;20209;-86
2022/04/14 05:41:32;;;;;;;61.17;32.43;;;10.50;94.60;;;;;;4845633;29;20618;-86
2022/04/14 05:43:58;;;;;;;60.20;33.67;;;10.60;94.60;;;;;;4845458;29;20183;-86
2022/04/14 05:46:25;;;;;;;57.23;31.43;;;10.60;94.50;;;;;;4862505;29;20179;-86
2022/04/14 05:48:50;;;;;;;51.17;32.10;;;10.60;94.50;;;;;;4845356;29;20589;-87
2022/04/14 05:51:16;;;;;;;58.47;31.57;;;10.70;94.50;;;;;;4845564;29;20186;-87
2022/04/14 05:53:42;;;;;;;52.40;31.80;;;10.70;94.50;;;;;;4845486;29;20199;-87
2022/04/14 05:56:08;;;;;;;52.67;29.93;;;10.80;94.50;;;;;;4862180;29;20641;-87
2022/04/14 05:58:34;;;;;;;45.53;28.17;;;10.80;94.40;;;;;;4845558;29;20282;-87
2022/04/14 06:01:00;;;;;;;45.30;28.60;;;10.80;94.40;;;;;;4862022;29;20560;-87
2022/04/14 06:03:26;;;;;;;48.03;27.97;;;10.80;94.30;;;;;;4845413;29;20189;-87
2022/04/14 06:05:52;;;;;;;48.77;28.50;;;10.90;94.30;;;;;;4845478;29;20193;-87
2022/04/14 06:08:18;;;;;;;44.10;27.53;;;10.90;94.20;;;;;;4844964;29;20213;-86
2022/04/14 06:10:44;;;;;;;45.17;29.90;;;10.90;94.20;;;;;;4845417;29;20693;-87
2022/04/14 06:13:11;;;;;;;45.07;28.00;;;11.00;94.20;;;;;;4845161;29;20207;-87
2022/04/14 06:15:37;;;;;;;41.83;26.93;;;11.00;94.10;;;;;;4845106;29;20178;-87
2022/04/14 06:18:03;;;;;;;48.37;28.13;;;11.00;94.10;;;;;;4845195;29;20605;-87
2022/04/14 06:20:28;;;;;;;46.57;28.73;;;11.10;94.00;;;;;;4861594;29;20605;-87
2022/04/14 06:22:56;;;;;;;47.83;29.07;;;11.10;94.00;;;;;;4845276;29;20201;-87
2022/04/14 06:25:22;;;;;;;48.50;29.37;;;11.10;94.00;;;;;;4861786;29;20179;-87
2022/04/14 06:27:49;;;;;;;47.43;29.80;;;11.20;94.00;;;;;;4844741;29;20290;-86
2022/04/14 06:30:16;;;;;;;45.50;28.73;;;11.20;93.90;;;;;;4844709;29;20209;-87
2022/04/14 06:32:42;;;;;;;49.87;29.60;;;11.20;93.90;;;;;;4844858;29;20203;-86
2022/04/14 06:35:15;;;;;;;47.77;30.23;;;11.20;93.90;;;;;;4844894;29;20190;-86
2022/04/14 06:37:40;;;;;;;46.50;29.67;;;11.30;93.90;;;;;;4844981;29;20202;-87
2022/04/14 06:40:06;;;;;;;50.80;29.67;;;11.30;93.90;;;;;;4861369;29;20182;-87
2022/04/14 06:42:32;;;;;;;52.37;30.53;;;11.30;93.90;;;;;;4861402;29;20197;-87
2022/04/14 06:44:59;;;;;;;46.80;29.63;;;11.30;93.80;;;;;;4845030;29;20214;-87
2022/04/14 06:47:26;;;;;;;48.80;29.70;;;11.30;93.70;;;;;;4861336;29;20848;-87
2022/04/14 06:49:51;;;;;;;52.33;30.50;;;11.40;93.70;;;;;;4844648;29;20286;-87
2022/04/14 06:52:17;;;;;;;43.53;30.40;;;11.40;93.70;;;;;;4844630;29;20273;-87
2022/04/14 06:54:43;;;;;;;47.43;29.57;;;11.30;93.50;;;;;;4844573;29;20183;-87
2022/04/14 06:57:09;;;;;;;47.87;30.53;;;11.30;93.50;;;;;;4844812;29;20179;-88
2022/04/14 06:59:34;;;;;;;43.83;28.90;;;11.30;93.40;;;;;;4861188;29;20278;-86
2022/04/14 07:02:00;;;;;;;46.83;31.00;;;11.40;93.50;;;;;;4861280;29;20190;-87
2022/04/14 07:04:27;;;;;;;49.60;31.17;;;11.50;93.40;;;;;;4861501;29;20717;-87
2022/04/14 07:06:52;;;;;;;50.77;30.47;;;11.50;93.40;;;;;;4844732;29;20218;-87
2022/04/14 07:09:18;;;;;;;48.30;29.47;;;11.60;93.30;;;;;;4844554;29;20245;-86
2022/04/14 07:11:44;;;;;;;44.73;30.50;;;11.50;93.10;;;;;;4844456;29;20190;-87
2022/04/14 07:14:09;;;;;;;47.03;29.53;;;11.60;93.20;;;;;;4844615;29;20207;-87
2022/04/14 07:16:35;;;;;;;48.53;31.50;;;11.70;93.20;;;;;;4844793;29;20182;-87
2022/04/14 07:19:00;;;;;;;53.43;31.43;;;11.80;93.20;;;;;;4861107;29;20753;-86
2022/04/14 07:21:26;;;;;;;50.73;31.97;;;11.90;93.20;;;;;;4846273;29;20625;-87
2022/04/14 07:23:51;;;;;;;55.73;32.53;;;11.70;92.70;;;;;;4864809;29;20187;-86
2022/04/14 07:26:17;;;;;;;54.30;33.97;;;11.90;92.80;;;;;;4864579;29;20182;-87
2022/04/14 07:28:42;;;;;;;51.67;31.73;;;12.00;92.70;;;;;;4864493;29;20765;-87
2022/04/14 07:31:08;;;;;;;44.77;30.47;;;12.10;92.60;;;;;;4848023;29;20191;-86
2022/04/14 07:33:34;;;;;;;56.17;32.57;;;12.00;92.40;;;;;;4864437;29;20198;-87
2022/04/14 07:36:00;;;;;;;49.13;30.93;;;12.00;92.30;;;;;;4847813;29;20642;-86
2022/04/14 07:38:25;;;;;;;49.73;30.33;;;12.10;92.40;;;;;;4847701;29;20209;-86
2022/04/14 07:40:51;;;;;;;46.47;30.70;;;12.10;92.20;;;;;;4864600;29;20600;-88
2022/04/14 07:43:16;;;;;;;44.60;29.57;;;12.10;92.10;;;;;;4848186;29;20675;-88
2022/04/14 07:45:45;;;;;;;58.40;32.03;;;12.10;92.00;;;;;;4847660;29;20191;-88
2022/04/14 07:48:11;;;;;;;47.23;31.13;;;12.20;91.90;;;;;;4848188;29;20218;-87
2022/04/14 07:50:36;;;;;;;45.63;29.27;;;12.20;91.90;;;;;;4864155;29;20190;-86
2022/04/14 07:53:02;;;;;;;44.70;28.53;;;12.20;91.80;;;;;;4864038;29;20281;-88
2022/04/14 07:55:30;;;;;;;44.67;29.33;;;12.20;91.70;;;;;;4847571;29;20183;-86
2022/04/14 07:57:57;;;;;;;46.83;30.17;;;12.20;91.60;;;;;;4847330;29;20700;-88
2022/04/14 08:00:24;;;;;;;43.83;28.30;;;12.20;91.50;;;;;;4864275;29;20178;-87
2022/04/14 08:02:58;;;;;;;46.50;30.70;;;12.20;91.40;;;;;;4864131;29;20702;-87
2022/04/14 08:05:29;;;;;;;41.37;29.30;;;12.20;91.20;;;;;;4847626;29;20178;-87
2022/04/14 08:07:56;;;;;;;52.00;30.27;;;12.20;91.00;;;;;;4847002;29;20717;-87
2022/04/14 08:10:21;;;;;;;47.87;29.80;;;12.20;90.90;;;;;;4847115;29;20195;-86
2022/04/14 08:12:47;;;;;;;44.63;29.87;;;12.40;91.10;;;;;;4847058;29;20202;-87
2022/04/14 08:15:14;;;;;;;48.97;31.97;;;12.50;90.90;;;;;;4846784;29;20182;-89
2022/04/14 08:17:41;;;;;;;46.87;31.87;;;12.60;90.70;;;;;;4846740;29;20298;-90
2022/04/14 08:20:07;;;;;;;46.07;30.63;;;12.70;90.50;;;;;;4863165;29;20238;-90
2022/04/14 08:22:51;;;;;;;46.70;30.00;;;12.80;90.30;;;;;;4846699;29;20183;-87
2022/04/14 08:25:20;;;;;;;45.63;29.80;;;12.80;89.90;;;;;;4863524;29;20175;-87
2022/04/14 08:27:47;;;;;;;42.30;30.53;;;12.60;89.40;;;;;;4846554;29;20213;-86
2022/04/14 08:30:13;;;;;;;45.17;30.93;;;12.70;89.40;;;;;;4846816;29;20187;-87
2022/04/14 08:32:39;;;;;;;45.73;30.73;;;12.70;89.10;;;;;;4846242;29;20207;-86
2022/04/14 08:35:05;;;;;;;43.07;29.83;;;12.80;89.20;;;;;;4847153;29;20617;-86
2022/04/14 08:37:32;;;;;;;43.37;30.30;;;12.60;88.30;;;;;;4846658;29;20187;-89
2022/04/14 08:39:58;;;;;;;47.13;29.57;;;12.70;88.60;;;;;;4846490;29;20568;-86
2022/04/14 08:42:37;;;;;;;45.60;30.40;;;12.70;88.50;;;;;;4846561;29;20187;-87
2022/04/14 08:45:05;;;;;;;43.53;28.30;;;12.80;88.60;;;;;;4863457;29;20159;-87
2022/04/14 08:47:34;;;;;;;41.10;28.47;;;12.70;88.40;;;;;;4846471;29;20558;-87
2022/04/14 08:50:00;;;;;;;38.87;28.83;;;12.70;88.30;;;;;;4846779;29;20251;-88
2022/04/14 08:52:27;;;;;;;41.20;29.33;;;12.80;88.80;;;;;;4846542;29;20269;-87
2022/04/14 08:54:54;;;;;;;41.53;29.57;;;12.80;88.30;;;;;;4846576;29;20262;-87
2022/04/14 08:57:21;;;;;;;43.00;29.13;;;12.70;88.00;;;;;;4846491;29;20190;-87
2022/04/14 08:59:48;;;;;;;38.20;28.03;;;12.70;88.20;;;;;;4846080;29;20187;-88
2022/04/14 09:02:17;;;;;;;42.57;28.30;;;12.90;88.30;;;;;;4846345;29;20187;-88
2022/04/14 09:04:44;;;;;;;36.73;26.70;;;12.90;87.50;;;;;;4862641;29;20202;-88
2022/04/14 09:07:10;;;;;;;38.23;25.27;;;13.10;87.50;;;;;;4846450;29;20190;-87
2022/04/14 09:09:37;;;;;;;36.00;26.20;;;13.20;86.60;;;;;;4846674;29;20207;-87
2022/04/14 09:12:04;;;;;;;39.80;28.40;;;13.20;86.00;;;;;;4847849;29;20191;-87
2022/04/14 09:14:34;;;;;;;36.80;26.90;;;13.30;86.30;;;;;;4863937;29;20734;-87
2022/04/14 09:17:05;;;;;;;38.03;26.33;;;13.70;86.80;;;;;;4846939;29;20179;-88
2022/04/14 09:19:36;;;;;;;37.10;24.70;;;13.50;85.50;;;;;;4846585;29;20209;-88
2022/04/14 09:22:03;;;;;;;32.20;25.97;;;13.50;85.60;;;;;;4846747;29;20175;-88
2022/04/14 09:24:52;;;;;;;30.97;22.70;;;13.80;85.90;;;;;;4862090;29;20178;-87
2022/04/14 09:27:29;;;;;;;26.73;19.87;;;13.70;82.70;;;;;;4845434;29;20187;-87
2022/04/14 09:30:06;;;;;;;29.37;21.37;;;13.70;82.70;;;;;;4862857;29;20186;-89
2022/04/14 09:32:37;;;;;;;35.77;23.60;;;14.00;83.40;;;;;;4846465;29;20186;-90
2022/04/14 09:35:05;;;;;;;33.63;23.70;;;13.70;82.80;;;;;;4847437;29;20589;-90
2022/04/14 09:37:32;;;;;;;27.53;19.83;;;14.20;84.10;;;;;;4846381;29;20183;-91
2022/04/14 09:40:05;;;;;;;27.47;20.60;;;14.50;82.70;;;;;;4846410;29;20210;-87
2022/04/14 09:42:33;;;;;;;25.93;20.30;;;14.50;81.60;;;;;;4861709;29;20170;-88
2022/04/14 09:45:25;;;;;;;24.33;17.93;;;14.50;81.60;;;;;;4861078;29;20527;-89
2022/04/14 09:47:52;;;;;;;21.80;18.70;;;14.70;80.40;;;;;;4845002;29;20320;-87
2022/04/14 09:50:27;;;;;;;22.53;18.27;;;15.00;81.70;;;;;;4862957;29;20198;-89
2022/04/14 09:53:08;;;;;;;21.70;17.80;;;15.00;79.80;;;;;;4845122;29;20205;-87
2022/04/14 09:55:55;;;;;;;25.03;16.97;;;14.90;79.60;;;;;;4847234;29;20201;-90
2022/04/14 09:58:26;;;;;;;19.87;17.00;;;15.20;80.00;;;;;;4861674;29;20206;-91
2022/04/14 10:00:56;;;;;;;24.90;16.40;;;15.20;78.70;;;;;;4861817;29;20182;-92
2022/04/14 10:03:27;;;;;;;25.57;18.83;;;15.20;78.30;;;;;;4845060;29;20193;-93
2022/04/14 10:05:58;;;;;;;20.43;15.63;;;15.20;78.20;;;;;;4846036;29;20175;-92
2022/04/14 10:08:24;;;;;;;19.40;14.70;;;15.40;77.40;;;;;;4861420;29;20199;-91
2022/04/14 10:11:12;;;;;;;16.47;12.37;;;15.40;75.50;;;;;;4844870;29;20211;-91
2022/04/14 10:13:39;;;;;;;19.80;12.90;;;15.30;74.40;;;;;;4844837;29;20202;-91
2022/04/14 10:16:07;;;;;;;17.00;13.57;;;15.30;76.10;;;;;;4844814;29;20650;-91
2022/04/14 10:18:33;;;;;;;17.42;14.05;;;15.50;74.30;;;;;;4861354;29;20677;-91
2022/04/14 10:20:59;;;;;;;14.30;12.77;;;15.60;74.70;;;;;;4861288;29;20187;-91
2022/04/14 10:23:28;;;;;;;16.77;13.07;;;15.80;74.50;;;;;;4844760;29;20191;-91
2022/04/14 10:25:54;;;;;;;14.88;12.10;;;15.80;73.30;;;;;;4844799;29;20183;-91
2022/04/14 10:28:20;;;;;;;16.58;12.70;;;16.00;74.50;;;;;;4845206;29;20575;-91
2022/04/14 10:30:55;;;;;;;15.90;12.20;;;16.30;74.00;;;;;;4845135;29;20592;-90
2022/04/14 10:33:22;;;;;;;19.10;9.80;;;16.50;72.80;;;;;;4861688;29;20213;-93
2022/04/14 10:35:51;;;;;;;10.77;9.63;;;16.30;70.80;;;;;;4844784;29;20178;-92
2022/04/14 10:38:25;;;;;;;10.73;8.30;;;16.20;71.60;;;;;;4845192;29;20221;-93
2022/04/14 10:40:59;;;;;;;11.52;8.90;;;16.20;70.40;;;;;;4846056;29;20170;-93
2022/04/14 10:43:26;;;;;;;18.38;9.45;;;16.20;71.20;;;;;;4845343;29;20179;-92
2022/04/14 10:45:54;;;;;;;15.50;9.45;;;16.10;70.60;;;;;;4845961;29;20218;-90
2022/04/14 10:48:31;;;;;;;13.10;10.73;;;16.20;71.30;;;;;;4860748;29;20218;-93
2022/04/14 10:51:29;;;;;;;15.05;9.43;;;16.40;69.90;;;;;;4844726;29;20278;-92
2022/04/14 10:54:12;;;;;;;11.50;9.10;;;16.90;70.70;;;;;;4844434;29;20206;-90
2022/04/14 10:56:37;;;;;;;15.65;10.10;;;17.20;69.60;;;;;;4849274;29;20261;-91
2022/04/14 10:59:21;;;;;;;10.82;6.80;;;17.10;69.30;;;;;;4849030;29;20360;-92
2022/04/14 11:01:52;;;;;;;10.10;8.10;;;17.00;67.10;;;;;;4848749;29;20652;-91
2022/04/14 11:04:24;;;;;;;9.30;7.72;;;17.00;68.10;;;;;;4848029;29;20559;-90
2022/04/14 11:06:54;;;;;;;11.30;6.90;;;16.80;65.70;;;;;;4847984;29;20232;-90
2022/04/14 11:09:38;;;;;;;8.48;6.40;;;17.10;66.40;;;;;;4848045;29;20202;-91
2022/04/14 11:12:09;;;;;;;9.30;7.53;;;17.30;66.60;;;;;;4847836;29;20210;-91
2022/04/14 11:15:03;;;;;;;9.23;7.75;;;16.70;66.20;;;;;;4848128;29;20207;-92
2022/04/14 11:17:37;;;;;;;9.45;8.55;;;16.40;67.10;;;;;;4848464;29;20190;-92
2022/04/14 11:20:13;;;;;;;11.95;8.88;;;16.40;68.90;;;;;;4849577;29;20172;-92
2022/04/14 11:23:01;;;;;;;12.98;8.82;;;16.60;68.60;;;;;;4848384;29;20183;-90
2022/04/14 11:26:12;;;;;;;9.70;8.63;;;16.30;68.70;;;;;;4847810;29;20250;-91
2022/04/14 11:28:43;;;;;;;9.57;8.25;;;16.60;68.70;;;;;;4845788;29;20711;-91
2022/04/14 11:31:18;;;;;;;13.93;8.73;;;16.70;68.30;;;;;;4847603;29;20610;-90
2022/04/14 11:33:48;;;;;;;12.35;9.07;;;16.70;67.40;;;;;;4848112;29;20285;-91
2022/04/14 11:36:16;;;;;;;10.57;8.77;;;16.50;68.10;;;;;;4865399;29;20163;-91
2022/04/14 11:38:51;;;;;;;13.95;9.13;;;16.60;68.20;;;;;;4848990;29;20199;-92
2022/04/14 11:41:43;;;;;;;9.10;8.15;;;16.30;68.00;;;;;;4847513;29;20205;-92
2022/04/14 11:44:20;;;;;;;13.55;8.65;;;16.20;69.20;;;;;;4864775;29;20178;-92
2022/04/14 11:46:50;;;;;;;12.25;7.45;;;16.20;68.70;;;;;;4848349;29;20214;-92
2022/04/14 11:49:21;;;;;;;8.57;7.13;;;16.30;67.70;;;;;;4848567;29;20211;-92
2022/04/14 11:52:15;;;;;;;7.72;6.10;;;16.40;68.40;;;;;;4851707;29;20179;-92
2022/04/14 11:54:41;;;;;;;11.82;6.53;;;16.30;67.40;;;;;;4853999;29;20221;-92
2022/04/14 11:57:12;;;;;;;8.40;5.78;;;16.30;66.70;;;;;;4862617;29;20215;-93
2022/04/14 11:59:40;;;;;;;9.30;6.05;;;16.20;66.10;;;;;;4859268;29;20233;-93
2022/04/14 12:02:14;;;;;;;6.70;5.90;;;16.20;66.50;;;;;;4855895;29;20273;-92
2022/04/14 12:04:44;;;;;;;6.65;5.95;;;16.30;66.90;;;;;;4849014;29;20552;-90
2022/04/14 12:07:10;;;;;;;7.78;6.50;;;16.30;66.70;;;;;;4846658;29;20183;-89
2022/04/14 12:09:43;;;;;;;8.02;6.35;;;16.20;66.90;;;;;;4846918;29;20203;-91
2022/04/14 12:12:17;;;;;;;8.18;6.85;;;15.80;67.40;;;;;;4847926;29;20171;-91
2022/04/14 12:14:47;;;;;;;9.15;7.43;;;15.60;67.60;;;;;;4847052;29;20204;-87
2022/04/14 12:17:16;;;;;;;10.88;7.60;;;15.50;67.80;;;;;;4847105;29;20179;-89
2022/04/14 12:19:47;;;;;;;11.25;7.88;;;15.40;68.50;;;;;;4846977;29;20678;-91
2022/04/14 12:22:14;;;;;;;13.60;9.13;;;15.30;69.20;;;;;;4847399;29;20210;-91
2022/04/14 12:24:48;;;;;;;14.57;11.73;;;15.40;70.10;;;;;;4847778;29;20235;-92
2022/04/14 12:27:22;;;;;;;21.45;14.45;;;15.30;71.30;;;;;;4864015;29;20171;-90
2022/04/14 12:29:55;;;;;;;20.52;15.50;;;15.10;72.60;;;;;;4847849;29;20273;-92
2022/04/14 12:32:26;;;;;;;23.27;17.63;;;14.90;73.20;;;;;;4863555;29;20685;-92